createdAt,value
2022-12-13T00:01:32.485Z,98.00
2022-12-13T00:04:02.254Z,98.10
2022-12-13T00:06:30.612Z,98.00
2022-12-13T00:08:59.080Z,97.80
2022-12-13T00:11:27.455Z,97.90
2022-12-13T00:13:55.812Z,98.00
2022-12-13T00:16:26.837Z,97.90
2022-12-13T00:18:57.183Z,98.00
2022-12-13T00:21:27.447Z,97.70
2022-12-13T00:23:55.806Z,97.60
2022-12-13T00:26:25.976Z,97.40
2022-12-13T00:28:54.572Z,97.70
2022-12-13T00:34:13.752Z,97.50
2022-12-13T00:36:41.716Z,97.70
2022-12-13T00:39:12.725Z,98.00
2022-12-13T00:41:41.375Z,98.30
2022-12-13T00:44:09.312Z,98.50
2022-12-13T00:46:39.017Z,98.50
2022-12-13T00:49:07.070Z,98.80
2022-12-13T00:51:35.678Z,98.40
2022-12-13T00:54:03.770Z,98.40
2022-12-13T00:56:33.845Z,98.40
2022-12-13T00:59:01.887Z,98.40
2022-12-13T01:01:32.186Z,98.00
2022-12-13T01:04:03.318Z,97.90
2022-12-13T01:06:36.528Z,98.20
2022-12-13T01:09:05.571Z,98.10
2022-12-13T01:11:34.020Z,98.20
2022-12-13T01:14:01.837Z,97.80
2022-12-13T01:16:29.747Z,97.90
2022-12-13T01:18:58.292Z,97.90
2022-12-13T01:21:27.762Z,97.70
2022-12-13T01:24:03.143Z,97.50
2022-12-13T01:26:31.492Z,97.60
2022-12-13T01:28:59.733Z,97.70
2022-12-13T01:31:28.217Z,97.80
2022-12-13T01:33:56.194Z,97.90
2022-12-13T01:36:27.450Z,97.80
2022-12-13T01:38:58.464Z,97.70
2022-12-13T01:41:29.265Z,97.90
2022-12-13T01:44:01.109Z,97.90
2022-12-13T01:46:29.406Z,97.80
2022-12-13T01:49:01.699Z,97.60
2022-12-13T01:51:34.920Z,97.70
2022-12-13T01:54:05.900Z,97.60
2022-12-13T01:56:38.808Z,97.60
2022-12-13T01:59:08.975Z,97.90
2022-12-13T02:01:37.173Z,97.50
2022-12-13T02:04:05.578Z,97.40
2022-12-13T02:06:36.083Z,97.80
2022-12-13T02:09:07.693Z,97.20
2022-12-13T02:11:38.033Z,96.90
2022-12-13T02:14:06.393Z,96.50
2022-12-13T02:16:44.550Z,96.60
2022-12-13T02:19:40.929Z,96.70
2022-12-13T02:22:24.628Z,96.90
2022-12-13T02:25:18.410Z,97.10
2022-12-13T02:28:31.374Z,97.40
2022-12-13T02:31:07.323Z,97.70
2022-12-13T02:33:44.113Z,98.20
2022-12-13T02:36:20.260Z,98.40
2022-12-13T02:38:55.918Z,98.30
2022-12-13T02:41:29.264Z,98.20
2022-12-13T02:44:01.297Z,98.20
2022-12-13T02:46:36.389Z,98.10
2022-12-13T02:49:05.856Z,98.00
2022-12-13T02:51:34.022Z,98.00
2022-12-13T02:54:01.781Z,98.10
2022-12-13T02:56:29.595Z,97.80
2022-12-13T02:58:59.773Z,97.60
2022-12-13T03:01:41.127Z,97.60
2022-12-13T03:04:16.386Z,98.00
2022-12-13T03:06:52.552Z,97.70
2022-12-13T03:09:30.475Z,97.40
2022-12-13T03:12:29.154Z,97.50
2022-12-13T03:15:01.764Z,97.20
2022-12-13T03:17:37.013Z,97.50
2022-12-13T03:20:22.541Z,97.90
2022-12-13T03:22:51.305Z,97.80
2022-12-13T03:25:32.184Z,97.70
2022-12-13T03:28:02.091Z,97.30
2022-12-13T03:30:30.319Z,97.20
2022-12-13T03:32:59.795Z,97.10
2022-12-13T03:35:34.913Z,97.10
2022-12-13T03:38:21.834Z,97.30
2022-12-13T03:40:51.879Z,97.20
2022-12-13T03:43:22.370Z,97.20
2022-12-13T03:45:50.885Z,97.40
2022-12-13T03:48:23.070Z,97.20
2022-12-13T03:50:52.370Z,97.00
2022-12-13T03:53:22.644Z,96.80
2022-12-13T03:56:00.850Z,96.80
2022-12-13T03:58:35.054Z,96.70
2022-12-13T04:01:06.639Z,96.80
2022-12-13T04:03:36.077Z,97.00
2022-12-13T04:06:04.266Z,97.00
2022-12-13T04:08:32.101Z,97.30
2022-12-13T04:11:00.006Z,97.10
2022-12-13T04:13:33.058Z,97.10
2022-12-13T04:16:01.610Z,97.00
2022-12-13T04:18:29.612Z,97.10
2022-12-13T04:20:58.750Z,97.30
2022-12-13T04:23:26.527Z,97.50
2022-12-13T04:25:54.369Z,97.70
2022-12-13T04:28:23.096Z,97.70
2022-12-13T04:30:53.413Z,97.50
2022-12-13T04:33:22.284Z,97.30
2022-12-13T04:35:51.040Z,97.60
2022-12-13T04:38:20.933Z,97.70
2022-12-13T04:40:48.778Z,97.40
2022-12-13T04:43:16.961Z,97.30
2022-12-13T04:45:44.771Z,97.30
2022-12-13T04:48:13.686Z,97.30
2022-12-13T04:51:01.396Z,97.50
2022-12-13T04:53:31.556Z,97.60
2022-12-13T04:55:59.858Z,97.40
2022-12-13T04:58:28.554Z,97.10
2022-12-13T05:00:56.497Z,97.20
2022-12-13T05:03:24.753Z,97.10
2022-12-13T05:05:52.642Z,96.50
2022-12-13T05:08:20.472Z,96.70
2022-12-13T05:10:49.681Z,96.60
2022-12-13T05:13:17.485Z,96.70
2022-12-13T05:15:47.454Z,96.60
2022-12-13T05:18:18.526Z,96.90
2022-12-13T05:20:46.346Z,96.90
2022-12-13T05:23:14.198Z,97.10
2022-12-13T05:25:52.347Z,97.10
2022-12-13T05:28:28.066Z,97.20
2022-12-13T05:30:57.991Z,97.20
2022-12-13T05:33:26.752Z,97.10
2022-12-13T05:35:59.394Z,97.20
2022-12-13T05:38:28.926Z,97.10
2022-12-13T05:40:58.291Z,97.00
2022-12-13T05:43:43.156Z,97.20
2022-12-13T05:46:12.146Z,97.00
2022-12-13T05:48:40.322Z,96.80
2022-12-13T05:51:10.775Z,97.00
2022-12-13T05:53:40.592Z,97.10
2022-12-13T05:56:11.967Z,97.30
2022-12-13T05:58:40.870Z,97.20
2022-12-13T06:01:09.935Z,97.10
2022-12-13T06:03:38.078Z,97.10
2022-12-13T06:06:07.580Z,97.30
2022-12-13T06:08:35.892Z,97.40
2022-12-13T06:11:11.286Z,97.10
2022-12-13T06:13:43.578Z,97.10
2022-12-13T06:16:22.936Z,97.60
2022-12-13T06:18:57.512Z,97.90
2022-12-13T06:21:33.359Z,98.30
2022-12-13T06:24:14.615Z,98.20
2022-12-13T06:26:42.459Z,97.90
2022-12-13T06:29:24.088Z,97.80
2022-12-13T06:32:02.259Z,98.00
2022-12-13T06:34:32.677Z,98.00
2022-12-13T06:37:01.203Z,97.90
2022-12-13T06:39:32.769Z,98.00
2022-12-13T06:42:02.497Z,97.90
2022-12-13T06:44:31.799Z,98.20
2022-12-13T06:47:11.275Z,98.10
2022-12-13T06:49:42.357Z,98.10
2022-12-13T06:52:11.864Z,98.40
2022-12-13T06:54:39.846Z,98.60
2022-12-13T06:57:11.163Z,98.70
2022-12-13T06:59:41.351Z,98.80
2022-12-13T07:02:25.353Z,98.40
2022-12-13T07:04:54.999Z,98.70
2022-12-13T07:07:23.284Z,98.60
2022-12-13T07:09:51.152Z,98.10
2022-12-13T07:12:20.844Z,98.10
2022-12-13T07:14:50.218Z,98.30
2022-12-13T07:17:33.380Z,98.00
2022-12-13T07:20:04.471Z,98.60
2022-12-13T07:22:34.779Z,98.30
2022-12-13T07:25:04.711Z,98.20
2022-12-13T07:27:32.586Z,98.40
2022-12-13T07:30:01.993Z,98.00
2022-12-13T07:32:29.899Z,97.90
2022-12-13T07:34:57.697Z,97.80
2022-12-13T07:37:30.277Z,98.00
2022-12-13T07:40:03.351Z,98.10
2022-12-13T07:42:31.580Z,98.00
2022-12-13T07:45:00.688Z,98.10
2022-12-13T07:47:30.448Z,98.20
2022-12-13T07:49:58.520Z,98.20
2022-12-13T07:52:26.349Z,98.40
2022-12-13T07:54:54.126Z,98.20
2022-12-13T07:57:21.929Z,97.90
2022-12-13T07:59:49.714Z,97.90
2022-12-13T08:02:18.843Z,97.80
2022-12-13T08:04:46.667Z,97.90
2022-12-13T08:07:22.933Z,98.20
2022-12-13T08:09:53.001Z,98.50
2022-12-13T08:12:22.947Z,98.60
2022-12-13T08:14:53.141Z,98.80
2022-12-13T08:17:23.116Z,98.70
2022-12-13T08:19:50.928Z,98.60
2022-12-13T08:22:24.164Z,98.60
2022-12-13T08:24:52.789Z,98.90
2022-12-13T08:27:20.570Z,99.00
2022-12-13T08:29:48.429Z,99.00
2022-12-13T08:32:16.192Z,99.40
2022-12-13T08:34:46.449Z,99.90
2022-12-13T08:37:14.676Z,99.70
2022-12-13T08:39:42.731Z,99.90
2022-12-13T08:42:18.163Z,99.90
2022-12-13T08:44:48.917Z,99.90
2022-12-13T08:47:24.120Z,99.90
2022-12-13T08:49:55.902Z,99.90
2022-12-13T08:52:30.303Z,99.80
2022-12-13T08:54:58.144Z,99.90
2022-12-13T08:57:25.981Z,99.90
2022-12-13T08:59:54.377Z,99.90
2022-12-13T09:02:22.237Z,99.90
2022-12-13T09:04:50.600Z,99.90
2022-12-13T09:07:19.730Z,99.90
2022-12-13T09:09:47.519Z,99.90
2022-12-13T09:12:30.746Z,99.90
2022-12-13T09:15:01.504Z,99.90
2022-12-13T09:17:36.735Z,99.90
2022-12-13T09:20:10.111Z,99.90
2022-12-13T09:23:01.811Z,99.90
2022-12-13T09:25:36.649Z,99.90
2022-12-13T09:28:07.263Z,99.90
2022-12-13T09:30:35.122Z,99.90
2022-12-13T09:33:28.967Z,99.90
2022-12-13T09:35:50.751Z,99.90
2022-12-13T09:39:03.457Z,99.90
2022-12-13T09:41:40.925Z,99.90
2022-12-13T09:44:30.516Z,99.90
2022-12-13T09:47:01.886Z,99.90
2022-12-13T09:49:35.278Z,99.90
2022-12-13T09:52:10.675Z,99.90
2022-12-13T09:54:47.883Z,99.90
2022-12-13T09:57:32.874Z,99.90
2022-12-13T10:00:04.004Z,99.90
2022-12-13T10:02:34.566Z,99.90
2022-12-13T10:05:22.825Z,99.90
2022-12-13T10:07:55.257Z,99.90
2022-12-13T10:10:23.287Z,99.90
2022-12-13T10:12:56.976Z,99.90
2022-12-13T10:15:26.803Z,99.90
2022-12-13T10:17:55.991Z,99.90
2022-12-13T10:20:28.759Z,99.90
2022-12-13T10:23:31.185Z,99.90
2022-12-13T10:25:51.678Z,99.90
2022-12-13T10:28:27.096Z,99.90
2022-12-13T10:30:55.099Z,99.90
2022-12-13T10:33:26.669Z,99.90
2022-12-13T10:36:12.485Z,99.90
2022-12-13T10:38:41.645Z,99.90
2022-12-13T10:41:30.978Z,99.90
2022-12-13T10:44:19.204Z,99.90
2022-12-13T10:46:52.094Z,99.90
2022-12-13T10:49:23.024Z,99.90
2022-12-13T10:51:51.954Z,99.90
2022-12-13T10:54:28.372Z,99.90
2022-12-13T10:57:00.226Z,99.90
2022-12-13T10:59:35.126Z,99.90
2022-12-13T11:02:21.325Z,99.90
2022-12-13T11:04:49.163Z,99.90
2022-12-13T11:07:29.533Z,99.90
2022-12-13T11:10:05.370Z,99.90
2022-12-13T11:12:34.387Z,99.90
2022-12-13T11:15:08.377Z,99.90
2022-12-13T11:17:46.489Z,99.90
2022-12-13T11:20:19.319Z,99.90
2022-12-13T11:22:47.155Z,99.90
2022-12-13T11:25:23.978Z,99.90
2022-12-13T11:28:03.906Z,99.40
2022-12-13T11:31:01.509Z,98.80
2022-12-13T11:33:47.470Z,98.80
2022-12-13T11:36:25.650Z,98.50
2022-12-13T11:39:04.291Z,98.10
2022-12-13T11:41:37.061Z,97.90
2022-12-13T11:44:12.692Z,97.70
2022-12-13T11:46:44.426Z,97.60
2022-12-13T11:49:18.012Z,97.60
2022-12-13T11:51:51.652Z,98.10
2022-12-13T11:54:26.940Z,98.60
2022-12-13T11:56:59.616Z,97.70
2022-12-13T11:59:40.338Z,96.00
2022-12-13T12:02:18.393Z,96.00
2022-12-13T12:04:55.065Z,95.20
2022-12-13T12:07:34.682Z,95.90
2022-12-13T12:10:16.593Z,97.10
2022-12-13T12:12:50.543Z,96.70
2022-12-13T12:15:26.677Z,96.70
2022-12-13T12:17:56.458Z,97.40
2022-12-13T12:20:32.371Z,98.00
2022-12-13T12:23:08.246Z,97.80
2022-12-13T12:25:44.100Z,97.80
2022-12-13T12:28:22.675Z,97.40
2022-12-13T12:31:01.064Z,98.00
2022-12-13T12:33:39.931Z,98.50
2022-12-13T12:36:25.397Z,98.90
2022-12-13T12:39:26.409Z,99.90
2022-12-13T12:42:19.978Z,99.90
2022-12-13T12:45:00.703Z,99.90
2022-12-13T12:48:07.295Z,99.90
2022-12-13T12:50:36.307Z,99.90
2022-12-13T12:53:13.884Z,99.90
2022-12-13T12:55:52.605Z,99.90
2022-12-13T12:58:28.941Z,99.90
2022-12-13T13:01:11.377Z,99.80
2022-12-13T13:03:42.905Z,99.90
2022-12-13T13:06:16.820Z,99.90
2022-12-13T13:08:53.432Z,99.90
2022-12-13T13:11:25.631Z,99.90
2022-12-13T13:14:06.999Z,99.80
2022-12-13T13:16:40.057Z,99.90
2022-12-13T13:19:47.155Z,99.90
2022-12-13T13:22:34.147Z,99.90
2022-12-13T13:25:30.971Z,99.90
2022-12-13T13:28:07.651Z,99.80
2022-12-13T13:30:36.847Z,99.70
2022-12-13T13:33:04.942Z,99.90
2022-12-13T13:35:56.315Z,99.50
2022-12-13T13:38:44.569Z,99.80
2022-12-13T13:41:39.480Z,99.80
2022-12-13T13:44:33.535Z,99.90
2022-12-13T13:47:15.959Z,99.90
2022-12-13T13:50:01.570Z,99.90
2022-12-13T13:52:37.949Z,99.90
2022-12-13T13:55:44.653Z,99.90
2022-12-13T13:58:46.939Z,99.90
2022-12-13T14:01:43.979Z,99.90
2022-12-13T14:04:47.000Z,99.90
2022-12-13T14:07:59.377Z,99.90
2022-12-13T14:10:47.275Z,99.90
2022-12-13T14:13:47.383Z,99.90
2022-12-13T14:16:58.785Z,99.90
2022-12-13T14:20:03.095Z,99.90
2022-12-13T14:22:35.933Z,99.90
2022-12-13T14:25:23.698Z,99.90
2022-12-13T14:27:58.333Z,99.90
2022-12-13T14:30:29.398Z,99.90
2022-12-13T14:32:58.294Z,99.90
2022-12-13T14:35:28.366Z,99.90
2022-12-13T14:37:58.747Z,99.90
2022-12-13T14:40:30.576Z,99.90
2022-12-13T14:43:00.436Z,99.90
2022-12-13T14:45:31.135Z,99.90
2022-12-13T14:48:01.179Z,99.90
2022-12-13T14:50:32.881Z,99.90
2022-12-13T14:53:03.028Z,99.90
2022-12-13T14:55:33.214Z,99.90
2022-12-13T14:58:16.602Z,99.90
2022-12-13T15:00:45.756Z,99.90
2022-12-13T15:03:23.713Z,99.90
2022-12-13T15:05:55.268Z,99.90
2022-12-13T15:08:23.375Z,99.90
2022-12-13T15:10:53.800Z,99.90
2022-12-13T15:13:29.823Z,99.90
2022-12-13T15:16:01.340Z,99.90
2022-12-13T15:18:32.909Z,99.90
2022-12-13T15:21:00.946Z,99.90
2022-12-13T15:23:32.939Z,99.90
2022-12-13T15:26:03.345Z,99.90
2022-12-13T15:28:36.834Z,99.90
2022-12-13T15:31:06.397Z,99.90
2022-12-13T15:33:40.804Z,99.90
2022-12-13T15:36:16.152Z,99.90
2022-12-13T15:38:50.379Z,99.90
2022-12-13T15:41:20.489Z,99.90
2022-12-13T15:43:53.196Z,99.90
2022-12-13T15:46:26.872Z,99.90
2022-12-13T15:48:56.359Z,99.90
2022-12-13T15:51:29.647Z,99.90
2022-12-13T15:54:07.621Z,99.90
2022-12-13T15:56:37.058Z,99.90
2022-12-13T15:59:07.713Z,99.90
2022-12-13T16:01:37.452Z,99.90
2022-12-13T16:04:06.425Z,99.90
2022-12-13T16:06:34.887Z,99.90
2022-12-13T16:09:05.038Z,99.90
2022-12-13T16:11:35.713Z,99.90
2022-12-13T16:14:37.919Z,99.90
2022-12-13T16:17:11.559Z,99.90
2022-12-13T16:19:39.881Z,99.90
2022-12-13T16:22:08.617Z,99.90
2022-12-13T16:24:37.613Z,99.90
2022-12-13T16:27:08.557Z,99.90
2022-12-13T16:29:38.382Z,99.90
2022-12-13T16:32:08.109Z,99.90
2022-12-13T16:34:37.062Z,99.90
2022-12-13T16:37:08.587Z,99.90
2022-12-13T16:39:52.726Z,99.90
2022-12-13T16:42:20.890Z,99.90
2022-12-13T16:45:18.127Z,99.90
2022-12-13T16:47:48.842Z,99.90
2022-12-13T16:50:19.106Z,99.90
2022-12-13T16:52:47.109Z,99.90
2022-12-13T16:55:14.919Z,99.90
2022-12-13T16:57:42.737Z,99.90
2022-12-13T17:00:14.551Z,99.90
2022-12-13T17:02:42.406Z,99.90
2022-12-13T17:05:10.426Z,99.90
2022-12-13T17:07:38.190Z,99.90
2022-12-13T17:10:07.837Z,99.90
2022-12-13T17:12:35.621Z,99.90
2022-12-13T17:15:03.441Z,99.90
2022-12-13T17:17:32.552Z,99.90
2022-12-13T17:20:00.501Z,99.90
2022-12-13T17:22:28.528Z,99.90
2022-12-13T17:24:56.283Z,99.90
2022-12-13T17:27:24.072Z,99.90
2022-12-13T17:29:51.865Z,99.90
2022-12-13T17:32:19.683Z,99.90
2022-12-13T17:34:48.842Z,99.90
2022-12-13T17:37:16.646Z,99.90
2022-12-13T17:39:44.581Z,99.90
2022-12-13T17:42:12.372Z,99.90
2022-12-13T17:44:40.141Z,99.90
2022-12-13T17:47:07.940Z,99.90
2022-12-13T17:49:35.742Z,99.90
2022-12-13T17:52:05.278Z,99.90
2022-12-13T17:54:33.294Z,99.90
2022-12-13T17:57:01.216Z,99.90
2022-12-13T17:59:29.134Z,99.90
2022-12-13T18:01:57.100Z,99.90
2022-12-13T18:04:25.240Z,99.90
2022-12-13T18:06:53.119Z,99.90
2022-12-13T18:09:22.228Z,99.90
2022-12-13T18:11:50.133Z,99.90
2022-12-13T18:14:17.919Z,99.90
2022-12-13T18:16:46.261Z,99.90
2022-12-13T18:19:14.736Z,99.90
2022-12-13T18:21:44.082Z,99.90
2022-12-13T18:24:12.746Z,99.90
2022-12-13T18:26:41.907Z,99.90
2022-12-13T18:29:10.030Z,99.90
2022-12-13T18:31:38.148Z,99.90
2022-12-13T18:34:06.087Z,99.90
2022-12-13T18:36:34.826Z,99.70
2022-12-13T18:39:02.903Z,99.50
2022-12-13T18:41:32.159Z,99.30
2022-12-13T18:44:03.202Z,99.10
2022-12-13T18:46:33.000Z,99.30
2022-12-13T18:49:00.972Z,99.70
2022-12-13T18:51:29.083Z,99.60
2022-12-13T18:53:58.325Z,99.70
2022-12-13T18:56:26.535Z,99.90
2022-12-13T18:58:54.942Z,99.90
2022-12-13T19:01:26.806Z,99.90
2022-12-13T19:03:55.545Z,99.80
2022-12-13T19:06:27.244Z,99.70
2022-12-13T19:08:57.995Z,99.80
2022-12-13T19:11:27.801Z,99.60
2022-12-13T19:13:56.742Z,99.70
2022-12-13T19:16:27.067Z,99.10
2022-12-13T19:18:55.015Z,98.90
2022-12-13T19:21:23.934Z,98.90
2022-12-13T19:23:57.368Z,99.20
2022-12-13T19:26:26.154Z,99.20
2022-12-13T19:28:53.938Z,99.20
2022-12-13T19:31:25.574Z,99.30
2022-12-13T19:34:00.092Z,99.40
2022-12-13T19:36:28.290Z,99.80
2022-12-13T19:38:56.874Z,99.80
2022-12-13T19:41:25.379Z,99.50
2022-12-13T19:43:54.099Z,99.30
2022-12-13T19:46:22.691Z,99.30
2022-12-13T19:48:50.777Z,99.50
2022-12-13T19:51:21.571Z,99.20
2022-12-13T19:53:49.769Z,99.00
2022-12-13T19:56:19.542Z,99.10
2022-12-13T19:58:48.418Z,99.40
2022-12-13T20:01:17.348Z,99.50
2022-12-13T20:03:47.090Z,99.00
2022-12-13T20:06:17.307Z,98.90
2022-12-13T20:08:46.726Z,99.10
2022-12-13T20:11:19.226Z,98.70
2022-12-13T20:13:47.145Z,98.70
2022-12-13T20:16:20.209Z,98.80
2022-12-13T20:18:48.824Z,98.90
2022-12-13T20:21:16.739Z,99.00
2022-12-13T20:26:35.298Z,99.10
2022-12-13T20:27:23.412Z,98.90
2022-12-13T20:29:03.548Z,99.00
2022-12-13T20:31:34.299Z,99.20
2022-12-13T20:34:04.456Z,99.20
2022-12-13T20:36:32.814Z,98.80
2022-12-13T20:39:04.720Z,99.10
2022-12-13T20:41:34.421Z,99.40
2022-12-13T20:44:04.096Z,99.70
2022-12-13T20:46:32.355Z,99.90
2022-12-13T20:49:03.266Z,99.90
2022-12-13T20:51:32.864Z,99.90
2022-12-13T20:54:02.376Z,99.90
2022-12-13T20:56:34.185Z,99.90
2022-12-13T20:59:02.779Z,99.90
2022-12-13T21:01:32.755Z,99.90
2022-12-13T21:04:02.915Z,99.90
2022-12-13T21:06:32.136Z,99.90
2022-12-13T21:09:03.117Z,99.90
2022-12-13T21:11:32.955Z,99.90
2022-12-13T21:14:08.350Z,99.90
2022-12-13T21:16:40.775Z,99.90
2022-12-13T21:19:10.005Z,99.90
2022-12-13T21:21:38.167Z,99.90
2022-12-13T21:24:08.888Z,99.60
2022-12-13T21:26:37.591Z,99.90
2022-12-13T21:29:07.359Z,99.90
2022-12-13T21:31:36.345Z,99.80
2022-12-13T21:34:06.240Z,99.80
2022-12-13T21:36:35.601Z,99.80
2022-12-13T21:39:09.023Z,99.70
2022-12-13T21:41:36.935Z,99.90
2022-12-13T21:44:05.045Z,99.80
2022-12-13T21:47:10.142Z,99.60
2022-12-13T21:49:21.326Z,99.70
2022-12-13T21:51:49.084Z,99.80
2022-12-13T21:54:18.844Z,99.90
2022-12-13T21:57:04.190Z,99.90
2022-12-13T21:59:32.016Z,99.90
2022-12-13T22:02:13.236Z,99.90
2022-12-13T22:04:43.364Z,99.90
2022-12-13T22:07:13.922Z,99.90
2022-12-13T22:09:43.135Z,99.90
2022-12-13T22:12:18.747Z,99.90
2022-12-13T22:14:46.549Z,99.90
2022-12-13T22:17:14.537Z,99.90
2022-12-13T22:19:42.457Z,99.90
2022-12-13T22:22:11.135Z,99.90
2022-12-13T22:24:39.056Z,99.90
2022-12-13T22:27:09.897Z,99.90
2022-12-13T22:29:37.849Z,99.90
2022-12-13T22:32:06.257Z,99.90
2022-12-13T22:34:34.136Z,99.90
2022-12-13T22:37:03.020Z,99.90
2022-12-13T22:39:31.259Z,99.90
2022-12-13T22:42:02.143Z,99.90
2022-12-13T22:44:31.649Z,99.90
2022-12-13T22:46:59.603Z,99.90
2022-12-13T22:49:27.845Z,99.90
2022-12-13T22:51:55.721Z,99.90
2022-12-13T22:54:23.701Z,99.90
2022-12-13T22:56:52.366Z,99.90
2022-12-13T22:59:20.267Z,99.90
2022-12-13T23:01:49.568Z,99.90
2022-12-13T23:04:17.443Z,99.90
2022-12-13T23:06:45.316Z,99.90
2022-12-13T23:09:15.185Z,99.90
2022-12-13T23:12:00.895Z,99.90
2022-12-13T23:14:30.561Z,99.90
2022-12-13T23:17:00.517Z,99.90
2022-12-13T23:19:49.970Z,99.90
2022-12-13T23:22:16.868Z,99.90
2022-12-13T23:24:44.787Z,99.90
2022-12-13T23:27:12.666Z,99.90
2022-12-13T23:29:40.626Z,99.90
2022-12-13T23:32:09.805Z,99.90
2022-12-13T23:34:37.661Z,99.90
2022-12-13T23:37:05.718Z,99.90
2022-12-13T23:39:33.785Z,99.90
2022-12-13T23:42:01.620Z,99.90
2022-12-13T23:44:29.552Z,99.90
2022-12-13T23:46:57.351Z,99.90
2022-12-13T23:49:26.669Z,99.90
2022-12-13T23:51:54.691Z,99.90
2022-12-13T23:54:22.850Z,99.90
2022-12-13T23:56:50.991Z,99.90
2022-12-13T23:59:18.908Z,99.90
